Time;durP1;ratioP1;P1;durP2;ratioP2;P2;SDS_P1;SDS_P2;PMS_P1;PMS_P2;Temp;Humidity;BMP_temperature;BMP_pressure;BME280_temperature;BME280_humidity;BME280_pressure;Samples;Min_cycle;Max_cycle;Signal;HPM_P1;HPM_P2
2022/10/29 00:01:05;;;;;;;29.75;18.60;;;;;;;13.64;100.00;101966.44;6270994;22;20043;-79
2022/10/29 00:03:30;;;;;;;22.13;16.38;;;;;;;13.63;100.00;101963.84;6272072;22;20023;-79
2022/10/29 00:05:59;;;;;;;29.35;17.15;;;;;;;13.66;100.00;101964.56;6269793;22;20000;-79
2022/10/29 00:08:26;;;;;;;21.75;14.88;;;;;;;13.67;100.00;101966.31;6270205;22;20000;-78
2022/10/29 00:10:51;;;;;;;23.40;15.05;;;;;;;13.68;100.00;101960.03;6271726;22;20048;-79
2022/10/29 00:13:17;;;;;;;20.92;14.85;;;;;;;13.66;100.00;101944.97;6271684;22;20057;-79
2022/10/29 00:15:42;;;;;;;23.08;15.35;;;;;;;13.70;100.00;101946.56;6271603;22;20011;-79
2022/10/29 00:18:07;;;;;;;25.15;15.82;;;;;;;13.67;100.00;101946.72;6275204;22;20448;-79
2022/10/29 00:20:33;;;;;;;22.80;16.05;;;;;;;13.64;100.00;101944.19;6274166;22;20015;-78
2022/10/29 00:22:58;;;;;;;22.25;16.58;;;;;;;13.62;100.00;101951.41;6272221;22;20007;-79
2022/10/29 00:25:23;;;;;;;19.15;15.52;;;;;;;13.57;100.00;101951.59;6269901;22;20082;-79
2022/10/29 00:27:48;;;;;;;22.10;15.73;;;;;;;13.47;100.00;101947.63;6270827;22;20486;-79
2022/10/29 00:30:14;;;;;;;22.23;15.63;;;;;;;13.43;100.00;101948.72;6271169;22;20003;-79
2022/10/29 00:32:39;;;;;;;23.00;14.63;;;;;;;13.38;100.00;101942.72;6269983;22;20012;-79
2022/10/29 00:35:04;;;;;;;21.33;14.73;;;;;;;13.30;100.00;101940.38;6270809;22;20003;-78
2022/10/29 00:37:30;;;;;;;19.17;15.07;;;;;;;13.23;100.00;101948.72;6272480;22;20010;-79
2022/10/29 00:39:55;;;;;;;21.90;16.02;;;;;;;13.21;100.00;101946.97;6271306;22;20023;-79
2022/10/29 00:42:20;;;;;;;21.13;15.50;;;;;;;13.16;100.00;101945.41;6268992;22;20010;-79
2022/10/29 00:44:46;;;;;;;21.33;15.43;;;;;;;13.13;100.00;101946.44;6268486;22;20006;-81
2022/10/29 00:47:25;;;;;;;23.00;15.98;;;;;;;13.09;100.00;101944.84;6267572;22;20698;-80
2022/10/29 00:49:56;;;;;;;22.58;15.23;;;;;;;13.05;100.00;101948.56;6269185;22;20031;-79
2022/10/29 00:52:23;;;;;;;20.98;15.77;;;;;;;13.02;100.00;101951.38;6269760;22;20023;-78
2022/10/29 00:54:51;;;;;;;20.73;14.60;;;;;;;12.93;100.00;101949.97;6268644;22;20742;-79
2022/10/29 00:57:26;;;;;;;25.23;16.98;;;;;;;12.95;100.00;101961.44;6271486;22;20321;-79
2022/10/29 00:59:52;;;;;;;22.45;15.75;;;;;;;12.90;100.00;101960.78;6270709;22;20219;-79
2022/10/29 01:02:19;;;;;;;24.20;15.57;;;;;;;12.89;100.00;101958.19;6269707;22;20000;-79
2022/10/29 01:04:45;;;;;;;24.83;14.98;;;;;;;12.94;100.00;101965.06;6269901;22;20011;-78
2022/10/29 01:07:11;;;;;;;23.67;15.30;;;;;;;12.93;100.00;101959.78;6269922;22;20011;-79
2022/10/29 01:09:37;;;;;;;21.67;15.85;;;;;;;12.88;100.00;101957.31;6272189;22;20036;-79
2022/10/29 01:12:09;;;;;;;21.85;15.48;;;;;;;12.86;100.00;101952.97;6271570;22;20026;-80
2022/10/29 01:14:59;;;;;;;26.98;15.50;;;;;;;12.82;100.00;101948.69;6273381;22;20007;-80
2022/10/29 01:17:39;;;;;;;24.35;15.30;;;;;;;12.76;100.00;101944.47;6271756;22;20004;-79
2022/10/29 01:20:25;;;;;;;20.13;14.93;;;;;;;12.76;100.00;101944.47;6271340;22;20011;-80
2022/10/29 01:23:02;;;;;;;21.85;15.68;;;;;;;12.76;100.00;101932.94;6270498;22;20095;-79
2022/10/29 01:25:49;;;;;;;21.15;16.20;;;;;;;12.73;100.00;101933.06;6269487;22;20004;-80
2022/10/29 01:28:32;;;;;;;27.20;16.20;;;;;;;12.69;100.00;101930.50;6270532;22;20078;-79
2022/10/29 01:31:33;;;;;;;22.67;16.37;;;;;;;12.70;100.00;101929.56;6270920;22;20008;-80
2022/10/29 01:34:10;;;;;;;25.05;16.23;;;;;;;12.68;100.00;101910.06;6206680;23;20050;-79
2022/10/29 01:36:54;;;;;;;25.27;16.10;;;;;;;12.68;100.00;101925.25;6208591;23;20009;-80
2022/10/29 01:39:30;;;;;;;22.15;15.82;;;;;;;12.65;100.00;101917.34;6207570;23;20008;-80
2022/10/29 01:42:10;;;;;;;22.13;15.13;;;;;;;12.60;100.00;101922.03;6208126;23;20036;-79
2022/10/29 01:44:54;;;;;;;21.20;15.27;;;;;;;12.56;100.00;101915.94;6207197;23;20489;-79
2022/10/29 01:47:25;;;;;;;21.48;15.88;;;;;;;12.52;100.00;101911.66;6208352;23;20119;-79
2022/10/29 01:49:56;;;;;;;25.20;15.68;;;;;;;12.49;100.00;101910.91;6207567;23;20011;-79
2022/10/29 01:52:22;;;;;;;22.38;15.23;;;;;;;12.44;100.00;101906.63;6207933;23;20044;-79
2022/10/29 01:54:48;;;;;;;22.27;15.48;;;;;;;12.40;100.00;101898.81;6206408;23;20013;-80
2022/10/29 01:57:34;;;;;;;21.83;15.93;;;;;;;12.38;100.00;101888.22;6208272;23;20490;-79
2022/10/29 02:00:09;;;;;;;24.65;16.17;;;;;;;12.35;100.00;101896.34;6208052;23;20401;-80
2022/10/29 02:02:44;;;;;;;23.30;15.90;;;;;;;12.30;100.00;101893.00;6207767;23;20478;-79
2022/10/29 02:05:26;;;;;;;24.27;16.15;;;;;;;12.34;100.00;101905.28;6206755;23;19997;-80
2022/10/29 02:08:07;;;;;;;26.25;16.50;;;;;;;12.28;100.00;101891.31;6236349;22;20042;-79
2022/10/29 02:11:00;;;;;;;24.35;16.70;;;;;;;12.23;100.00;101886.16;6271821;22;20012;-79
2022/10/29 02:13:42;;;;;;;21.42;15.77;;;;;;;12.27;100.00;101882.44;6271152;22;20061;-79
2022/10/29 02:16:09;;;;;;;25.83;16.17;;;;;;;12.29;100.00;101888.59;6272008;22;20413;-79
2022/10/29 02:18:43;;;;;;;25.65;16.02;;;;;;;12.27;100.00;101886.91;6272619;22;20010;-79
2022/10/29 02:21:08;;;;;;;;;;;;;;;12.30;100.00;101884.13;6271565;22;20487;-79
2022/10/29 02:23:33;;;;;;;20.92;16.17;;;;;;;12.25;100.00;101872.75;6268113;22;19998;-79
2022/10/29 02:25:59;;;;;;;25.50;17.60;;;;;;;12.27;100.00;101870.91;6272255;22;20003;-79
2022/10/29 02:28:24;;;;;;;28.77;17.60;;;;;;;12.25;100.00;101872.75;6272185;22;20587;-78
2022/10/29 02:30:49;;;;;;;23.10;15.63;;;;;;;12.23;100.00;101854.13;6271414;22;20039;-80
2022/10/29 02:33:15;;;;;;;24.10;16.65;;;;;;;12.22;100.00;101852.41;6271136;22;20008;-80
2022/10/29 02:35:40;;;;;;;21.60;16.20;;;;;;;12.19;100.00;101863.19;6270068;22;20048;-79
2022/10/29 02:38:05;;;;;;;22.55;16.42;;;;;;;12.14;100.00;101863.41;6269152;22;20011;-78
2022/10/29 02:40:30;;;;;;;23.00;15.82;;;;;;;12.15;100.00;101861.59;6270837;22;20077;-79
2022/10/29 02:42:56;;;;;;;20.75;15.55;;;;;;;12.11;100.00;101857.31;6267767;22;20007;-79
2022/10/29 02:45:21;;;;;;;25.83;16.25;;;;;;;12.06;100.00;101854.84;6268442;22;20005;-78
2022/10/29 02:47:46;;;;;;;22.50;16.58;;;;;;;12.06;100.00;101854.84;6270049;22;20003;-79
2022/10/29 02:50:11;;;;;;;22.17;16.88;;;;;;;12.08;100.00;101861.00;6270366;22;20058;-79
2022/10/29 02:52:37;;;;;;;29.23;17.67;;;;;;;12.09;100.00;101854.72;6269515;22;20008;-78
2022/10/29 02:55:02;;;;;;;23.95;17.80;;;;;;;12.17;100.00;101851.75;6268052;22;20430;-79
2022/10/29 02:57:27;;;;;;;22.00;16.23;;;;;;;12.15;100.00;101850.91;6269772;22;20004;-80
2022/10/29 02:59:53;;;;;;;27.08;17.27;;;;;;;12.21;100.00;101850.69;6269531;22;20011;-79
2022/10/29 03:02:18;;;;;;;25.02;16.92;;;;;;;12.28;100.00;101843.25;6267567;22;20049;-79
2022/10/29 03:04:44;;;;;;;21.63;16.10;;;;;;;12.28;100.00;101844.13;6268864;22;20444;-79
2022/10/29 03:07:09;;;;;;;20.52;15.63;;;;;;;12.28;100.00;101841.47;6270679;22;20004;-79
2022/10/29 03:09:34;;;;;;;24.20;16.42;;;;;;;12.30;100.00;101836.06;6272560;22;20360;-80
2022/10/29 03:11:59;;;;;;;23.38;16.77;;;;;;;12.25;100.00;101830.94;6270951;22;20000;-80
2022/10/29 03:14:25;;;;;;;24.80;15.60;;;;;;;12.23;100.00;101831.91;6275074;22;19996;-79
2022/10/29 03:16:50;;;;;;;25.13;16.63;;;;;;;12.18;100.00;101818.78;6288272;22;19996;-77
2022/10/29 03:19:15;;;;;;;24.00;16.67;;;;;;;12.14;100.00;101822.50;6277841;22;20074;-78
2022/10/29 03:21:40;;;;;;;27.55;17.58;;;;;;;12.10;100.00;101821.75;6277128;22;20014;-79
2022/10/29 03:24:06;;;;;;;26.80;16.83;;;;;;;12.08;100.00;101836.06;6274556;22;20003;-79
2022/10/29 03:26:31;;;;;;;24.45;16.17;;;;;;;12.00;100.00;101832.84;6278481;22;20010;-79
2022/10/29 03:28:56;;;;;;;22.63;16.75;;;;;;;11.94;100.00;101824.19;6271740;22;20011;-79
2022/10/29 03:31:22;;;;;;;23.80;16.10;;;;;;;11.88;100.00;101813.78;6270431;22;20016;-78
2022/10/29 03:33:47;;;;;;;22.55;16.58;;;;;;;11.85;100.00;101826.38;6269279;22;20398;-79
2022/10/29 03:36:12;;;;;;;25.25;16.75;;;;;;;11.83;100.00;101823.78;6270214;22;20438;-79
2022/10/29 03:38:37;;;;;;;23.42;15.90;;;;;;;11.77;100.00;101826.63;6269874;22;20011;-78
2022/10/29 03:41:07;;;;;;;23.75;16.48;;;;;;;11.68;100.00;101813.66;6269125;22;20567;-79
2022/10/29 03:43:34;;;;;;;25.95;16.63;;;;;;;11.70;100.00;101819.78;6269074;22;20007;-79
2022/10/29 03:45:59;;;;;;;23.80;16.17;;;;;;;11.63;100.00;101813.84;6268650;22;20378;-79
2022/10/29 03:48:24;;;;;;;23.25;16.45;;;;;;;11.66;100.00;101818.19;6271102;22;20031;-80
2022/10/29 03:51:00;;;;;;;21.88;16.27;;;;;;;11.70;100.00;101809.13;6269059;22;20008;-80
2022/10/29 03:53:27;;;;;;;22.33;16.27;;;;;;;11.76;100.00;101800.03;6268634;22;20000;-79
2022/10/29 03:55:54;;;;;;;24.35;16.42;;;;;;;11.83;100.00;101796.19;6271080;22;20029;-80
2022/10/29 03:58:20;;;;;;;30.42;17.85;;;;;;;11.89;100.00;101786.16;6271895;22;20012;-80
2022/10/29 04:00:56;;;;;;;28.80;17.95;;;;;;;11.98;100.00;101781.38;6270792;22;20015;-79
2022/10/29 04:03:21;;;;;;;24.70;17.40;;;;;;;12.03;100.00;101768.69;6267787;22;20448;-79
2022/10/29 04:05:46;;;;;;;27.70;17.27;;;;;;;12.06;100.00;101773.91;6267445;22;20082;-80
2022/10/29 04:08:12;;;;;;;25.27;17.33;;;;;;;12.01;100.00;101766.09;6269854;22;20014;-79
2022/10/29 04:10:37;;;;;;;21.95;16.65;;;;;;;12.03;100.00;101776.69;6271347;22;20082;-79
2022/10/29 04:13:02;;;;;;;21.02;15.95;;;;;;;12.01;100.00;101782.13;6268700;22;19999;-80
2022/10/29 04:15:27;;;;;;;24.23;16.60;;;;;;;11.99;100.00;101767.09;6269671;22;20000;-79
2022/10/29 04:17:53;;;;;;;22.27;15.88;;;;;;;12.03;100.00;101768.69;6269674;22;20008;-79
2022/10/29 04:20:18;;;;;;;24.08;15.73;;;;;;;12.01;100.00;101765.25;6271660;22;20102;-80
2022/10/29 04:22:43;;;;;;;22.95;16.40;;;;;;;12.04;100.00;101765.09;6269498;22;20417;-79
2022/10/29 04:25:08;;;;;;;21.38;16.08;;;;;;;12.05;100.00;101766.84;6269403;22;20023;-79
2022/10/29 04:27:34;;;;;;;25.58;16.05;;;;;;;12.05;100.00;101772.19;6269586;22;20063;-79
2022/10/29 04:29:59;;;;;;;24.30;16.70;;;;;;;12.05;100.00;101762.38;6269722;22;20362;-79
2022/10/29 04:32:24;;;;;;;22.60;16.45;;;;;;;12.02;100.00;101765.16;6267982;22;20015;-79
2022/10/29 04:34:49;;;;;;;22.20;16.20;;;;;;;12.05;100.00;101770.38;6270274;22;20319;-80
2022/10/29 04:37:15;;;;;;;23.23;15.65;;;;;;;12.05;100.00;101766.84;6270480;22;19999;-79
2022/10/29 04:39:40;;;;;;;26.42;18.33;;;;;;;12.08;100.00;101761.34;6268163;22;20095;-79
2022/10/29 04:42:05;;;;;;;28.80;19.30;;;;;;;12.09;100.00;101758.66;6272445;22;20140;-78
2022/10/29 04:44:30;;;;;;;31.20;20.70;;;;;;;12.13;100.00;101762.91;6273906;22;20053;-79
2022/10/29 04:46:56;;;;;;;29.30;20.83;;;;;;;12.16;100.00;101769.91;6278605;22;20003;-80
2022/10/29 04:49:21;;;;;;;31.60;20.10;;;;;;;12.12;100.00;101762.97;6273720;22;20464;-80
2022/10/29 04:51:46;;;;;;;34.45;20.25;;;;;;;12.17;100.00;101769.88;6271151;22;19999;-79
2022/10/29 04:54:12;;;;;;;33.25;20.80;;;;;;;12.17;100.00;101763.66;6270178;22;20011;-79
2022/10/29 04:56:37;;;;;;;31.67;20.60;;;;;;;12.24;100.00;101762.44;6271316;22;20022;-80
2022/10/29 04:59:02;;;;;;;33.60;21.38;;;;;;;12.28;100.00;101756.03;6271289;22;20000;-79
2022/10/29 05:01:28;;;;;;;31.92;21.25;;;;;;;12.30;100.00;101759.53;6270326;22;20401;-79
2022/10/29 05:03:54;;;;;;;33.60;22.50;;;;;;;12.35;100.00;101757.50;6269569;22;20004;-79
2022/10/29 05:06:19;;;;;;;35.67;23.73;;;;;;;12.34;100.00;101749.59;6270756;22;20054;-79
2022/10/29 05:08:44;;;;;;;36.60;23.27;;;;;;;12.33;100.00;101748.72;6271669;22;20011;-79
2022/10/29 05:11:09;;;;;;;35.58;23.35;;;;;;;12.28;100.00;101745.34;6271300;22;20003;-78
2022/10/29 05:13:35;;;;;;;35.90;23.50;;;;;;;12.30;100.00;101743.50;6271232;22;20004;-79
2022/10/29 05:16:00;;;;;;;37.35;22.88;;;;;;;12.28;100.00;101742.69;6272633;22;19996;-80
2022/10/29 05:18:26;;;;;;;33.10;22.67;;;;;;;12.21;100.00;101743.91;6272950;22;20010;-79
2022/10/29 05:20:52;;;;;;;34.60;22.83;;;;;;;12.16;100.00;101740.56;6269120;22;20333;-80
2022/10/29 05:23:17;;;;;;;39.25;23.73;;;;;;;12.24;100.00;101737.56;6269383;22;20035;-80
2022/10/29 05:25:47;;;;;;;40.80;24.05;;;;;;;12.21;100.00;101738.56;6271064;22;20291;-80
2022/10/29 05:28:17;;;;;;;39.17;23.55;;;;;;;12.21;100.00;101742.09;6268295;22;20012;-80
2022/10/29 05:30:43;;;;;;;34.08;22.33;;;;;;;12.16;100.00;101741.44;6266807;22;20020;-80
2022/10/29 05:33:09;;;;;;;37.97;23.67;;;;;;;12.22;100.00;101737.63;6267865;22;20444;-80
2022/10/29 05:35:35;;;;;;;32.05;22.65;;;;;;;12.23;100.00;101750.03;6270103;22;20009;-79
2022/10/29 05:38:01;;;;;;;30.77;21.77;;;;;;;12.24;100.00;101741.09;6269620;22;20027;-79
2022/10/29 05:40:26;;;;;;;36.88;22.77;;;;;;;12.29;100.00;101735.53;6270084;22;20054;-79
2022/10/29 05:42:51;;;;;;;33.13;22.15;;;;;;;12.33;100.00;101721.13;6268772;22;20047;-80
2022/10/29 05:45:17;;;;;;;39.75;24.33;;;;;;;12.41;100.00;101717.19;6268672;22;20110;-79
2022/10/29 05:47:43;;;;;;;38.55;24.80;;;;;;;12.49;100.00;101719.53;6268484;22;20004;-80
2022/10/29 05:50:09;;;;;;;35.60;22.92;;;;;;;12.50;100.00;101723.94;6270102;22;20050;-80
2022/10/29 05:52:34;;;;;;;35.70;23.17;;;;;;;12.51;100.00;101722.13;6268807;22;20077;-80
2022/10/29 05:54:59;;;;;;;32.70;22.35;;;;;;;12.50;100.00;101720.38;6268080;22;20000;-80
2022/10/29 05:57:26;;;;;;;37.92;22.88;;;;;;;12.50;100.00;101721.28;6269545;22;20039;-79
2022/10/29 05:59:51;;;;;;;36.88;23.10;;;;;;;12.49;100.00;101716.84;6267156;22;20016;-80
2022/10/29 06:02:17;;;;;;;32.15;22.58;;;;;;;12.52;100.00;101710.50;6266350;22;20058;-78
2022/10/29 06:04:42;;;;;;;36.33;22.13;;;;;;;12.53;100.00;101709.56;6265891;22;20095;-80
2022/10/29 06:07:07;;;;;;;29.52;21.20;;;;;;;12.54;100.00;101705.97;6268371;22;20517;-80
2022/10/29 06:09:33;;;;;;;31.75;21.58;;;;;;;12.51;100.00;101701.63;6269453;22;20063;-79
2022/10/29 06:11:58;;;;;;;36.22;22.95;;;;;;;12.55;100.00;101721.06;6270059;22;20004;-79
2022/10/29 06:14:23;;;;;;;35.03;23.10;;;;;;;12.50;100.00;101728.38;6275330;22;20003;-78
2022/10/29 06:16:48;;;;;;;30.83;21.27;;;;;;;12.44;100.00;101733.06;6277009;22;20002;-79
2022/10/29 06:19:14;;;;;;;32.45;20.58;;;;;;;12.44;100.00;101725.06;6276866;22;20057;-80
2022/10/29 06:21:39;;;;;;;30.83;22.38;;;;;;;12.51;100.00;101723.00;6272514;22;20051;-80
2022/10/29 06:24:05;;;;;;;34.22;21.88;;;;;;;12.53;100.00;101723.78;6270975;22;20035;-80
2022/10/29 06:26:30;;;;;;;30.88;22.27;;;;;;;12.56;100.00;101730.81;6271501;22;20315;-80
2022/10/29 06:28:55;;;;;;;34.80;22.75;;;;;;;12.54;100.00;101730.88;6270358;22;20008;-80
2022/10/29 06:31:21;;;;;;;35.30;21.95;;;;;;;12.55;100.00;101737.09;6270600;22;20026;-80
2022/10/29 06:33:46;;;;;;;31.05;21.40;;;;;;;12.52;100.00;101737.22;6270817;22;20057;-79
2022/10/29 06:36:12;;;;;;;32.03;20.63;;;;;;;12.53;100.00;101734.47;6271489;22;20007;-80
2022/10/29 06:38:37;;;;;;;26.15;18.45;;;;;;;12.46;100.00;101728.56;6271737;22;20046;-80
2022/10/29 06:41:02;;;;;;;31.60;20.17;;;;;;;12.39;100.00;101720.88;6273926;22;20532;-92
2022/10/29 06:43:27;;;;;;;27.73;20.25;;;;;;;12.33;100.00;101724.69;6272744;22;20006;-80
2022/10/29 06:45:53;;;;;;;33.35;21.95;;;;;;;12.32;100.00;101735.41;6271058;22;20084;-80
2022/10/29 06:48:18;;;;;;;32.20;20.90;;;;;;;12.27;100.00;101730.28;6268751;22;20094;-80
2022/10/29 06:50:43;;;;;;;29.42;20.00;;;;;;;12.22;100.00;101734.97;6270685;22;20004;-80
2022/10/29 06:53:12;;;;;;;32.55;22.23;;;;;;;12.32;100.00;101744.28;6270815;22;20049;-81
2022/10/29 06:55:38;;;;;;;28.83;20.58;;;;;;;12.31;100.00;101731.88;6273823;22;20068;-81
2022/10/29 06:58:15;;;;;;;33.95;22.40;;;;;;;12.46;100.00;101743.72;6272017;22;20378;-81
2022/10/29 07:00:41;;;;;;;31.20;20.85;;;;;;;12.49;100.00;101745.34;6274325;22;20398;-81
2022/10/29 07:03:11;;;;;;;31.30;21.45;;;;;;;12.51;100.00;101748.84;6268257;22;20090;-81
2022/10/29 07:05:36;;;;;;;32.05;22.67;;;;;;;12.58;100.00;101756.50;6271911;22;20060;-80
2022/10/29 07:08:01;;;;;;;29.15;20.67;;;;;;;12.61;100.00;101751.00;6272193;22;20094;-80
2022/10/29 07:10:29;;;;;;;27.40;21.15;;;;;;;12.62;100.00;101746.53;6272344;22;20003;-80
2022/10/29 07:12:54;;;;;;;33.42;20.58;;;;;;;12.56;100.00;101744.16;6272374;22;20437;-80
2022/10/29 07:15:20;;;;;;;28.65;19.60;;;;;;;12.56;100.00;101744.16;6272552;22;20066;-80
2022/10/29 07:17:59;;;;;;;29.95;20.15;;;;;;;12.58;100.00;101742.25;6273601;22;20027;-80
2022/10/29 07:20:27;;;;;;;31.98;21.95;;;;;;;12.64;100.00;101734.00;6272157;22;20003;-82
2022/10/29 07:22:52;;;;;;;29.08;21.25;;;;;;;12.71;100.00;101733.66;6271033;22;20011;-79
2022/10/29 07:25:18;;;;;;;31.40;20.40;;;;;;;12.73;100.00;101720.22;6269278;22;20014;-79
2022/10/29 07:27:43;;;;;;;36.17;22.25;;;;;;;12.81;100.00;101726.06;6274040;22;20004;-80
2022/10/29 07:30:09;;;;;;;30.30;21.55;;;;;;;12.86;100.00;101729.38;6272985;22;20007;-80
2022/10/29 07:32:34;;;;;;;31.45;21.45;;;;;;;12.96;100.00;101716.50;6270065;22;20334;-81
2022/10/29 07:35:00;;;;;;;28.80;22.55;;;;;;;13.07;100.00;101703.47;6270132;22;20302;-81
2022/10/29 07:37:26;;;;;;;29.80;20.50;;;;;;;13.16;100.00;101697.69;6267388;22;20007;-81
2022/10/29 07:39:51;;;;;;;35.72;20.05;;;;;;;13.24;100.00;101704.50;6269299;22;20053;-81
2022/10/29 07:42:16;;;;;;;27.73;20.38;;;;;;;13.32;100.00;101708.53;6267490;22;20418;-80
2022/10/29 07:44:42;;;;;;;29.70;20.13;;;;;;;13.35;100.00;101705.72;6271667;22;20035;-80
2022/10/29 07:47:07;;;;;;;27.35;19.75;;;;;;;13.35;100.00;101697.69;6271468;22;20225;-80
2022/10/29 07:49:32;;;;;;;30.60;19.67;;;;;;;13.35;100.00;101687.00;6272070;22;20093;-81
2022/10/29 07:51:58;;;;;;;28.70;18.92;;;;;;;13.45;100.00;101696.28;6271216;22;20004;-81
2022/10/29 07:54:23;;;;;;;25.55;19.33;;;;;;;13.66;100.00;101705.06;6271776;22;20039;-81
2022/10/29 07:56:51;;;;;;;25.30;18.00;;;;;;;13.82;100.00;101705.16;6270877;22;20478;-80
2022/10/29 07:59:18;;;;;;;26.02;18.30;;;;;;;13.93;100.00;101704.63;6271303;22;20011;-80
2022/10/29 08:01:43;;;;;;;27.13;18.33;;;;;;;14.05;100.00;101708.50;6270934;22;20000;-81
2022/10/29 08:04:08;;;;;;;24.10;17.58;;;;;;;14.27;100.00;101710.91;6270602;22;20096;-80
2022/10/29 08:06:34;;;;;;;25.33;18.42;;;;;;;14.43;100.00;101699.31;6271361;22;20031;-79
2022/10/29 08:08:59;;;;;;;27.65;18.73;;;;;;;14.61;100.00;101691.25;6272062;22;20004;-79
2022/10/29 08:11:24;;;;;;;27.10;16.90;;;;;;;14.77;100.00;101707.38;6269382;22;20008;-79
2022/10/29 08:13:49;;;;;;;21.48;17.40;;;;;;;14.92;100.00;101698.47;6269930;22;20030;-78
2022/10/29 08:16:15;;;;;;;28.15;15.93;;;;;;;14.97;100.00;101696.41;6268867;22;20083;-79
2022/10/29 08:18:40;;;;;;;24.20;16.15;;;;;;;15.04;100.00;101692.41;6269363;22;20333;-79
2022/10/29 08:21:05;;;;;;;25.60;15.77;;;;;;;15.09;100.00;101702.88;6268694;22;20381;-79
2022/10/29 08:23:31;;;;;;;24.33;15.93;;;;;;;15.18;100.00;101713.13;6269817;22;20074;-80
2022/10/29 08:25:57;;;;;;;25.85;15.45;;;;;;;15.30;100.00;101711.53;6269658;22;20007;-80
2022/10/29 08:28:22;;;;;;;25.27;15.23;;;;;;;15.37;100.00;101702.19;6271339;22;20011;-80
2022/10/29 08:30:49;;;;;;;24.15;15.38;;;;;;;15.44;100.00;101693.72;6269287;22;20449;-79
2022/10/29 08:33:14;;;;;;;25.10;15.00;;;;;;;15.57;100.00;101693.00;6270702;22;19999;-80
2022/10/29 08:35:39;;;;;;;20.42;14.07;;;;;;;15.60;100.00;101691.00;6272010;22;20004;-79
2022/10/29 08:38:05;;;;;;;22.02;13.88;;;;;;;15.72;100.00;101697.50;6271121;22;20023;-80
2022/10/29 08:40:49;;;;;;;18.67;14.40;;;;;;;15.91;100.00;101710.69;6271008;22;20003;-80
2022/10/29 08:43:20;;;;;;;20.98;14.55;;;;;;;16.08;100.00;101698.94;6272198;22;20396;-79
2022/10/29 08:45:51;;;;;;;19.15;13.55;;;;;;;16.36;100.00;101703.50;6269514;22;20026;-80
2022/10/29 08:48:35;;;;;;;19.08;13.30;;;;;;;16.64;100.00;101706.22;6269328;22;20011;-79
2022/10/29 08:51:07;;;;;;;19.02;13.18;;;;;;;16.88;98.97;101701.13;6267478;22;20000;-81
2022/10/29 08:53:40;;;;;;;24.23;14.00;;;;;;;17.00;97.81;101698.63;6271821;22;20018;-80
2022/10/29 08:56:12;;;;;;;18.52;12.85;;;;;;;16.88;96.90;101700.25;6295488;22;20444;-80
2022/10/29 08:58:41;;;;;;;20.15;12.77;;;;;;;16.76;97.25;101696.56;6272138;22;20011;-80
2022/10/29 09:01:10;;;;;;;18.55;12.70;;;;;;;16.60;97.65;101695.75;6270031;22;20012;-79
2022/10/29 09:03:35;;;;;;;18.85;12.20;;;;;;;16.52;97.75;101690.00;6272049;22;20433;-79
2022/10/29 09:06:09;;;;;;;22.17;12.73;;;;;;;16.54;98.99;101696.13;6270917;22;20000;-79
2022/10/29 09:08:51;;;;;;;;;;;;;;;16.68;100.00;101691.63;6271039;22;20065;-79
2022/10/29 09:11:41;;;;;;;17.55;12.32;;;;;;;16.84;96.97;101683.47;6271351;22;19903;-78
2022/10/29 09:14:27;;;;;;;33.95;14.90;;;;;;;17.09;97.78;101680.06;6275384;22;20110;-79
2022/10/29 09:17:19;;;;;;;17.77;11.82;;;;;;;17.39;95.02;101679.88;6251072;22;20348;-80
2022/10/29 09:20:04;;;;;;;18.05;12.23;;;;;;;17.65;94.42;101688.06;6275991;22;20012;-80
2022/10/29 09:22:53;;;;;;;16.60;12.10;;;;;;;17.87;94.06;101688.34;6270399;22;20003;-80
2022/10/29 09:25:29;;;;;;;19.15;12.13;;;;;;;18.13;92.26;101693.78;6272479;22;20045;-80
2022/10/29 09:28:10;;;;;;;18.92;12.13;;;;;;;18.10;90.05;101697.56;6271039;22;20050;-79
2022/10/29 09:30:59;;;;;;;19.17;11.43;;;;;;;18.09;90.22;101686.88;6269908;22;20007;-80
2022/10/29 09:33:26;;;;;;;17.30;11.82;;;;;;;17.96;89.33;101673.38;6271122;22;20007;-78
2022/10/29 09:35:54;;;;;;;17.75;12.05;;;;;;;17.89;88.72;101670.28;6272288;22;20000;-79
2022/10/29 09:38:29;;;;;;;17.55;11.57;;;;;;;17.91;89.52;101679.09;6273801;22;20038;-79
2022/10/29 09:40:56;;;;;;;17.88;11.77;;;;;;;17.98;88.36;101670.59;6273919;22;20003;-80
2022/10/29 09:43:44;;;;;;;17.42;11.90;;;;;;;17.98;89.46;101667.91;6273186;22;20000;-79
2022/10/29 09:46:09;;;;;;;19.42;11.30;;;;;;;17.98;89.18;101673.31;6269751;22;20039;-79
2022/10/29 09:48:43;;;;;;;18.53;11.33;;;;;;;18.23;88.82;101669.75;6272505;22;20069;-79
2022/10/29 09:51:23;;;;;;;17.08;10.80;;;;;;;18.50;87.31;101673.19;6271347;22;20261;-79
2022/10/29 09:53:50;;;;;;;16.67;11.32;;;;;;;18.65;87.28;101669.41;6271261;22;20033;-79
2022/10/29 09:56:15;;;;;;;14.70;10.38;;;;;;;18.70;84.88;101652.06;6271177;22;20003;-79
2022/10/29 09:58:44;;;;;;;17.02;9.70;;;;;;;18.88;83.64;101659.69;6272528;22;20011;-79
2022/10/29 10:01:10;;;;;;;19.10;10.07;;;;;;;18.98;83.03;101651.78;6270606;22;20611;-79
2022/10/29 10:03:40;;;;;;;18.10;9.75;;;;;;;19.04;83.97;101645.94;6271586;22;20062;-79
2022/10/29 10:06:08;;;;;;;17.50;9.68;;;;;;;19.23;82.35;101642.75;6271310;22;20022;-79
2022/10/29 10:08:57;;;;;;;16.02;9.02;;;;;;;19.19;83.16;101649.34;6271564;22;20058;-79
2022/10/29 10:11:23;;;;;;;17.80;9.35;;;;;;;19.30;81.23;101640.44;6270230;22;20008;-79
2022/10/29 10:13:52;;;;;;;15.98;8.77;;;;;;;19.63;80.59;101647.84;6270944;22;20000;-79
2022/10/29 10:16:26;;;;;;;18.75;8.10;;;;;;;20.07;80.27;101646.28;6270510;22;20000;-79
2022/10/29 10:18:52;;;;;;;15.65;8.40;;;;;;;20.18;77.36;101632.75;6271096;22;20030;-80
2022/10/29 10:21:30;;;;;;;15.75;8.02;;;;;;;20.27;78.55;101636.56;6269780;22;20003;-79
2022/10/29 10:23:57;;;;;;;13.05;8.27;;;;;;;20.17;76.52;101635.59;6271823;22;20008;-80
2022/10/29 10:26:42;;;;;;;12.85;7.05;;;;;;;20.02;78.69;101643.03;6271735;22;20003;-78
2022/10/29 10:29:20;;;;;;;13.27;7.60;;;;;;;19.82;79.03;101652.72;6271123;22;20004;-79
2022/10/29 10:31:47;;;;;;;13.75;6.80;;;;;;;19.62;78.05;101647.00;6271710;22;20527;-79
2022/10/29 10:34:21;;;;;;;15.05;6.78;;;;;;;19.57;79.79;101651.84;6270116;22;20018;-79
2022/10/29 10:36:50;;;;;;;17.23;7.10;;;;;;;19.50;78.87;101638.94;6270044;22;20003;-79
2022/10/29 10:39:29;;;;;;;12.70;6.40;;;;;;;19.47;79.43;101631.91;6269759;22;20039;-80
2022/10/29 10:41:57;;;;;;;19.00;7.18;;;;;;;19.54;76.84;101637.72;6270540;22;20007;-79
2022/10/29 10:44:22;;;;;;;12.75;6.35;;;;;;;19.52;77.20;101634.25;6269215;22;20011;-80
2022/10/29 10:46:51;;;;;;;11.75;5.90;;;;;;;19.50;77.78;101636.22;6269457;22;20010;-80
2022/10/29 10:49:24;;;;;;;14.93;6.30;;;;;;;19.31;79.01;101626.84;6267985;22;20003;-80
2022/10/29 10:51:52;;;;;;;;;;;;;;;19.38;81.49;101622.66;6267286;22;20364;-79
2022/10/29 10:54:37;;;;;;;16.23;6.10;;;;;;;19.25;80.27;101621.88;6269045;22;19907;-80
2022/10/29 10:57:18;;;;;;;14.82;5.97;;;;;;;19.18;78.89;101612.50;6271214;22;20007;-80
2022/10/29 10:59:54;;;;;;;12.15;5.88;;;;;;;19.18;80.36;101609.81;6269008;22;20016;-78
2022/10/29 11:02:28;;;;;;;11.00;5.68;;;;;;;19.15;79.79;101610.94;6269037;22;20008;-79
2022/10/29 11:05:07;;;;;;;14.15;5.78;;;;;;;19.13;79.93;101617.41;6269912;22;20037;-81
2022/10/29 11:07:36;;;;;;;13.23;6.10;;;;;;;19.06;78.06;101622.41;6268590;22;20098;-80
2022/10/29 11:10:05;;;;;;;16.05;6.13;;;;;;;19.01;80.50;101616.47;6271051;22;20397;-80
2022/10/29 11:12:40;;;;;;;13.55;5.63;;;;;;;19.05;79.47;101606.31;6268652;22;20007;-80